createdAt,value
2017-02-19T00:00:00.116Z,79.62
2017-02-19T00:00:21.813Z,79.80
2017-02-19T00:01:20.104Z,79.30
2017-02-19T00:01:41.822Z,79.42
2017-02-19T00:02:03.517Z,79.40
2017-02-19T00:02:25.223Z,79.31
2017-02-19T00:02:46.920Z,79.53
2017-02-19T00:03:08.629Z,79.57
2017-02-19T00:03:35.098Z,79.74
2017-02-19T00:03:56.801Z,79.54
2017-02-19T00:04:18.498Z,79.55
2017-02-19T00:04:44.972Z,79.70
2017-02-19T00:05:06.705Z,79.77
2017-02-19T00:05:33.178Z,80.03
2017-02-19T00:05:54.871Z,80.02
2017-02-19T00:06:21.352Z,81.29
2017-02-19T00:06:43.041Z,80.21
2017-02-19T00:07:14.292Z,80.42
2017-02-19T00:07:35.986Z,80.78
2017-02-19T00:07:57.692Z,80.63
2017-02-19T00:08:24.167Z,80.89
2017-02-19T00:08:45.865Z,80.61
2017-02-19T00:09:07.584Z,80.29
2017-02-19T00:09:29.290Z,80.73
2017-02-19T00:09:50.978Z,81.39
2017-02-19T00:10:12.679Z,81.39
2017-02-19T00:10:34.382Z,80.67
2017-02-19T00:10:56.080Z,80.53
2017-02-19T00:11:17.778Z,80.41
2017-02-19T00:11:39.484Z,80.60
2017-02-19T00:12:01.179Z,81.33
2017-02-19T00:12:22.887Z,80.93
2017-02-19T00:12:49.357Z,80.85
2017-02-19T00:13:11.048Z,80.98
2017-02-19T00:13:32.749Z,81.63
2017-02-19T00:13:59.221Z,81.01
2017-02-19T00:14:20.952Z,80.93
2017-02-19T00:14:42.771Z,80.85
2017-02-19T00:15:04.469Z,80.74
2017-02-19T00:15:26.164Z,80.72
2017-02-19T00:15:47.860Z,80.86
2017-02-19T00:16:19.115Z,81.43
2017-02-19T00:16:40.804Z,81.52
2017-02-19T00:17:02.513Z,81.14
2017-02-19T00:17:24.210Z,80.55
2017-02-19T00:17:45.903Z,80.40
2017-02-19T00:18:07.604Z,80.45
2017-02-19T00:18:34.087Z,81.12
2017-02-19T00:18:55.775Z,80.89
2017-02-19T00:19:17.474Z,80.77
2017-02-19T00:19:39.201Z,80.30
2017-02-19T00:20:00.893Z,80.39
2017-02-19T00:20:22.596Z,80.31
2017-02-19T00:20:44.334Z,80.69
2017-02-19T00:21:06.041Z,80.53
2017-02-19T00:21:27.749Z,80.82
2017-02-19T00:21:49.457Z,80.32
2017-02-19T00:22:11.151Z,80.56
2017-02-19T00:22:32.853Z,80.82
2017-02-19T00:22:54.548Z,80.46
2017-02-19T00:23:16.240Z,80.71
2017-02-19T00:23:37.931Z,80.27
2017-02-19T00:24:04.400Z,80.30
2017-02-19T00:24:26.091Z,80.61
2017-02-19T00:24:47.813Z,80.37
2017-02-19T00:25:09.550Z,80.37
2017-02-19T00:25:31.239Z,80.87
2017-02-19T00:25:52.944Z,80.54
2017-02-19T00:26:14.650Z,80.65
2017-02-19T00:26:36.338Z,80.50
2017-02-19T00:26:58.045Z,80.99
2017-02-19T00:27:24.524Z,81.52
2017-02-19T00:27:46.215Z,80.31
2017-02-19T00:28:07.924Z,80.26
2017-02-19T00:28:29.616Z,80.51
2017-02-19T00:28:51.312Z,80.62
2017-02-19T00:29:13.009Z,80.64
2017-02-19T00:29:34.717Z,80.47
2017-02-19T00:29:56.408Z,80.38
2017-02-19T00:30:27.665Z,80.13
2017-02-19T00:30:49.364Z,80.25
2017-02-19T00:31:11.057Z,80.26
2017-02-19T00:31:32.759Z,80.47
2017-02-19T00:31:54.453Z,81.53
2017-02-19T00:32:16.151Z,80.57
2017-02-19T00:32:37.854Z,80.71
2017-02-19T00:32:59.546Z,80.46
2017-02-19T00:33:21.245Z,81.15
2017-02-19T00:33:42.948Z,80.70
2017-02-19T00:34:04.644Z,81.16
2017-02-19T00:34:26.352Z,81.18
2017-02-19T00:34:48.049Z,80.99
2017-02-19T00:35:09.754Z,81.40
2017-02-19T00:35:31.500Z,80.92
2017-02-19T00:35:53.210Z,81.03
2017-02-19T00:36:14.899Z,80.53
2017-02-19T00:36:36.605Z,80.33
2017-02-19T00:36:58.306Z,80.32
2017-02-19T00:37:20.013Z,81.22
2017-02-19T00:37:41.705Z,80.86
2017-02-19T00:38:03.433Z,80.89
2017-02-19T00:38:25.102Z,80.86
2017-02-19T00:38:46.797Z,80.89
2017-02-19T00:39:08.497Z,80.84
2017-02-19T00:39:30.193Z,80.38
2017-02-19T00:39:51.882Z,80.48
2017-02-19T00:40:23.128Z,80.39
2017-02-19T00:40:44.839Z,81.99
2017-02-19T00:41:06.546Z,80.33
2017-02-19T00:41:28.253Z,80.84
2017-02-19T00:41:49.940Z,81.02
2017-02-19T00:42:21.197Z,80.66
2017-02-19T00:42:42.893Z,80.26
2017-02-19T00:43:04.592Z,80.49
2017-02-19T00:43:26.295Z,80.61
2017-02-19T00:43:47.988Z,80.58
2017-02-19T00:44:09.693Z,81.14
2017-02-19T00:44:31.394Z,80.83
2017-02-19T00:44:53.086Z,80.78
2017-02-19T00:45:19.568Z,80.40
2017-02-19T00:45:41.261Z,80.61
2017-02-19T00:46:02.960Z,80.62
2017-02-19T00:46:24.664Z,80.60
2017-02-19T00:46:46.386Z,80.55
2017-02-19T00:47:08.093Z,81.27
2017-02-19T00:47:34.561Z,80.80
2017-02-19T00:47:56.261Z,80.60
2017-02-19T00:48:17.962Z,81.00
2017-02-19T00:48:39.658Z,81.36
2017-02-19T00:49:01.350Z,82.00
2017-02-19T00:49:23.049Z,82.18
2017-02-19T00:49:44.750Z,82.13
2017-02-19T00:50:06.440Z,81.91
2017-02-19T00:50:28.146Z,81.63
2017-02-19T00:50:49.846Z,81.49
2017-02-19T00:51:11.543Z,82.14
2017-02-19T00:51:38.008Z,81.41
2017-02-19T00:51:59.721Z,81.79
2017-02-19T00:52:21.412Z,81.68
2017-02-19T00:52:43.107Z,81.95
2017-02-19T00:53:04.808Z,82.71
2017-02-19T00:53:26.499Z,81.87
2017-02-19T00:53:52.971Z,82.01
2017-02-19T00:54:14.667Z,82.01
2017-02-19T00:54:36.364Z,81.38
2017-02-19T00:54:58.068Z,81.34
2017-02-19T00:55:19.757Z,81.91
2017-02-19T00:55:41.461Z,81.81
2017-02-19T00:56:07.932Z,80.96
2017-02-19T00:56:29.625Z,80.92
2017-02-19T00:56:51.323Z,81.02
2017-02-19T00:57:17.808Z,81.25
2017-02-19T00:57:39.504Z,81.70
2017-02-19T00:58:01.194Z,81.48
2017-02-19T00:58:27.667Z,81.08
2017-02-19T00:58:49.360Z,80.93
2017-02-19T00:59:20.611Z,80.76
2017-02-19T00:59:42.304Z,80.69
2017-02-19T01:00:45.378Z,80.66
2017-02-19T01:01:07.070Z,81.12
2017-02-19T01:01:28.765Z,80.91
2017-02-19T01:01:55.252Z,81.04
2017-02-19T01:02:16.966Z,81.23
2017-02-19T01:02:38.665Z,80.88
2017-02-19T01:03:00.364Z,80.71
2017-02-19T01:03:22.061Z,80.93
2017-02-19T01:03:43.763Z,81.04
2017-02-19T01:04:10.243Z,81.48
2017-02-19T01:04:31.936Z,80.91
2017-02-19T01:04:53.635Z,81.13
2017-02-19T01:05:15.339Z,81.31
2017-02-19T01:05:37.031Z,80.94
2017-02-19T01:06:03.501Z,80.98
2017-02-19T01:06:25.190Z,81.21
2017-02-19T01:06:46.894Z,81.25
2017-02-19T01:07:08.596Z,81.17
2017-02-19T01:07:30.316Z,81.29
2017-02-19T01:07:52.045Z,81.12
2017-02-19T01:08:18.514Z,80.71
2017-02-19T01:08:40.208Z,80.70
2017-02-19T01:09:01.910Z,80.90
2017-02-19T01:09:23.613Z,80.83
2017-02-19T01:09:45.312Z,81.21
2017-02-19T01:10:07.006Z,81.57
2017-02-19T01:10:28.699Z,81.14
2017-02-19T01:10:50.396Z,82.19
2017-02-19T01:11:16.869Z,81.12
2017-02-19T01:11:38.564Z,81.40
2017-02-19T01:12:00.265Z,81.12
2017-02-19T01:12:21.960Z,81.24
2017-02-19T01:12:43.654Z,81.08
2017-02-19T01:13:05.370Z,81.05
2017-02-19T01:13:27.070Z,80.87
2017-02-19T01:13:48.768Z,80.82
2017-02-19T01:14:10.461Z,81.13
2017-02-19T01:14:32.164Z,81.27
2017-02-19T01:14:53.871Z,81.82
2017-02-19T01:15:15.560Z,81.94
2017-02-19T01:15:46.811Z,81.50
2017-02-19T01:16:08.505Z,81.47
2017-02-19T01:17:11.012Z,81.19
2017-02-19T01:17:32.702Z,82.38
2017-02-19T01:17:54.413Z,82.01
2017-02-19T01:18:20.912Z,81.84
2017-02-19T01:18:42.618Z,81.46
2017-02-19T01:19:04.321Z,81.94
2017-02-19T01:19:28.022Z,81.78
2017-02-19T01:19:51.939Z,82.96
2017-02-19T01:20:13.656Z,81.74
2017-02-19T01:20:35.353Z,81.54
2017-02-19T01:20:57.046Z,82.21
2017-02-19T01:21:23.530Z,82.11
2017-02-19T01:21:45.214Z,81.51
2017-02-19T01:22:06.918Z,82.11
2017-02-19T01:22:33.397Z,82.07
2017-02-19T01:22:55.094Z,81.25
2017-02-19T01:23:16.893Z,81.66
2017-02-19T01:23:38.616Z,81.42
2017-02-19T01:24:00.307Z,81.50
2017-02-19T01:24:21.998Z,81.82
2017-02-19T01:24:48.476Z,81.92
2017-02-19T01:25:10.174Z,81.61
2017-02-19T01:25:31.891Z,81.50
2017-02-19T01:25:58.361Z,81.01
2017-02-19T01:26:20.055Z,82.15
2017-02-19T01:26:41.743Z,81.39
2017-02-19T01:27:03.440Z,81.45
2017-02-19T01:27:25.152Z,81.17
2017-02-19T01:27:46.851Z,81.33
2017-02-19T01:28:08.544Z,81.14
2017-02-19T01:28:30.235Z,81.29
2017-02-19T01:28:51.973Z,80.98
2017-02-19T01:29:13.664Z,81.68
2017-02-19T01:29:35.366Z,81.18
2017-02-19T01:29:57.065Z,81.82
2017-02-19T01:30:18.763Z,81.42
2017-02-19T01:30:40.467Z,81.78
2017-02-19T01:31:02.173Z,82.33
2017-02-19T01:31:23.866Z,82.15
2017-02-19T01:31:45.560Z,81.91
2017-02-19T01:32:12.026Z,82.10
2017-02-19T01:32:33.726Z,82.87
2017-02-19T01:32:55.429Z,82.46
2017-02-19T01:33:21.904Z,82.83
2017-02-19T01:33:43.597Z,82.51
2017-02-19T01:34:05.317Z,81.96
2017-02-19T01:34:27.022Z,81.96
2017-02-19T01:34:51.324Z,82.21
2017-02-19T01:35:13.028Z,82.26
2017-02-19T01:35:34.727Z,82.83
2017-02-19T01:35:56.420Z,83.17
2017-02-19T01:36:18.120Z,82.38
2017-02-19T01:36:39.827Z,82.08
2017-02-19T01:37:01.524Z,81.67
2017-02-19T01:37:23.216Z,82.17
2017-02-19T01:37:49.688Z,81.96
2017-02-19T01:38:16.157Z,82.61
2017-02-19T01:38:37.852Z,82.54
2017-02-19T01:38:59.562Z,82.79
2017-02-19T01:39:21.285Z,82.38
2017-02-19T01:39:42.982Z,81.93
2017-02-19T01:40:04.688Z,81.77
2017-02-19T01:40:26.388Z,82.02
2017-02-19T01:40:48.083Z,82.31
2017-02-19T01:41:41.024Z,82.08
2017-02-19T01:42:02.737Z,82.26
2017-02-19T01:42:24.439Z,82.55
2017-02-19T01:42:46.132Z,82.02
2017-02-19T01:43:07.828Z,82.15
2017-02-19T01:43:39.088Z,82.98
2017-02-19T01:44:03.559Z,82.59
2017-02-19T01:44:25.286Z,82.61
2017-02-19T01:44:46.983Z,82.63
2017-02-19T01:45:08.685Z,82.78
2017-02-19T01:45:32.391Z,83.00
2017-02-19T01:45:54.097Z,82.39
2017-02-19T01:46:15.786Z,83.90
2017-02-19T01:46:37.491Z,83.21
2017-02-19T01:46:59.187Z,82.55
2017-02-19T01:47:20.887Z,82.48
2017-02-19T01:47:42.591Z,82.52
2017-02-19T01:48:04.291Z,82.53
2017-02-19T01:48:25.996Z,82.81
2017-02-19T01:48:47.694Z,82.81
2017-02-19T01:49:14.175Z,83.32
2017-02-19T01:49:35.883Z,83.27
2017-02-19T01:49:57.581Z,82.70
2017-02-19T01:50:19.318Z,82.58
2017-02-19T01:50:41.014Z,82.36
2017-02-19T01:51:07.491Z,83.17
2017-02-19T01:51:29.181Z,82.93
2017-02-19T01:51:50.883Z,82.59
2017-02-19T01:52:39.078Z,82.46
2017-02-19T01:53:00.890Z,81.88
2017-02-19T01:53:22.628Z,82.02
2017-02-19T01:53:44.316Z,82.06
2017-02-19T01:54:06.029Z,82.80
2017-02-19T01:54:27.726Z,82.40
2017-02-19T01:54:49.433Z,82.54
2017-02-19T01:55:15.917Z,82.50
2017-02-19T01:55:37.640Z,82.61
2017-02-19T01:55:59.331Z,82.93
2017-02-19T01:56:21.033Z,82.28
2017-02-19T01:56:42.726Z,82.24
2017-02-19T01:57:04.432Z,82.12
2017-02-19T01:57:26.128Z,81.71
2017-02-19T01:57:47.828Z,82.08
2017-02-19T01:58:12.186Z,81.84
2017-02-19T01:58:33.883Z,82.05
2017-02-19T01:58:55.581Z,82.44
2017-02-19T01:59:17.271Z,82.40
2017-02-19T01:59:38.967Z,82.46
2017-02-19T02:00:00.669Z,82.53
2017-02-19T02:00:22.356Z,82.78
2017-02-19T02:00:44.074Z,82.69
2017-02-19T02:01:05.804Z,82.41
2017-02-19T02:01:27.495Z,82.26
2017-02-19T02:01:49.191Z,82.11
2017-02-19T02:02:10.894Z,81.90
2017-02-19T02:02:32.582Z,82.21
2017-02-19T02:02:54.278Z,82.42
2017-02-19T02:03:15.987Z,82.41
2017-02-19T02:03:37.694Z,82.60
2017-02-19T02:03:59.389Z,82.30
2017-02-19T02:04:21.099Z,82.04
2017-02-19T02:04:47.571Z,82.01
2017-02-19T02:05:09.268Z,81.76
2017-02-19T02:05:30.975Z,82.14
2017-02-19T02:05:52.680Z,81.66
2017-02-19T02:06:14.415Z,81.81
2017-02-19T02:06:36.113Z,81.66
2017-02-19T02:06:57.817Z,81.85
2017-02-19T02:07:19.507Z,81.41
2017-02-19T02:07:41.207Z,81.72
2017-02-19T02:08:02.915Z,81.83
2017-02-19T02:08:24.617Z,81.66
2017-02-19T02:08:46.323Z,82.08
2017-02-19T02:09:12.790Z,81.80
2017-02-19T02:09:34.485Z,81.88
2017-02-19T02:09:56.193Z,81.84
2017-02-19T02:10:17.892Z,82.39
2017-02-19T02:10:39.582Z,82.57
2017-02-19T02:11:01.281Z,81.93
2017-02-19T02:11:27.750Z,81.79
2017-02-19T02:11:49.449Z,81.70
2017-02-19T02:12:11.149Z,82.03
2017-02-19T02:12:32.858Z,82.31
2017-02-19T02:12:54.546Z,82.44
2017-02-19T02:13:16.249Z,81.65
2017-02-19T02:13:37.950Z,82.14
2017-02-19T02:13:59.646Z,81.95
2017-02-19T02:14:47.822Z,82.52
2017-02-19T02:15:09.519Z,82.58
2017-02-19T02:15:31.220Z,82.25
2017-02-19T02:15:52.921Z,82.37
2017-02-19T02:16:14.613Z,82.33
2017-02-19T02:16:36.343Z,82.06
2017-02-19T02:16:58.043Z,82.07
2017-02-19T02:17:19.739Z,82.04
2017-02-19T02:17:41.426Z,82.11
2017-02-19T02:18:03.129Z,82.33
2017-02-19T02:18:24.822Z,82.94
2017-02-19T02:18:51.305Z,82.49
2017-02-19T02:19:12.994Z,82.25
2017-02-19T02:19:34.695Z,82.69
2017-02-19T02:19:56.399Z,82.32
2017-02-19T02:20:18.094Z,82.34
2017-02-19T02:20:39.790Z,82.55
2017-02-19T02:21:06.265Z,82.67
2017-02-19T02:21:27.963Z,83.43
2017-02-19T02:21:54.447Z,82.92
2017-02-19T02:22:16.142Z,83.00
2017-02-19T02:22:42.626Z,82.75
2017-02-19T02:23:04.323Z,82.75
2017-02-19T02:23:26.022Z,82.43
2017-02-19T02:23:47.726Z,82.14
2017-02-19T02:24:09.415Z,82.24
2017-02-19T02:24:31.117Z,82.15
2017-02-19T02:24:57.578Z,82.00
2017-02-19T02:25:19.273Z,82.00
2017-02-19T02:25:40.982Z,81.76
2017-02-19T02:26:02.684Z,82.11
2017-02-19T02:26:24.381Z,82.56
2017-02-19T02:26:46.086Z,82.21
2017-02-19T02:27:07.782Z,82.39
2017-02-19T02:27:29.480Z,82.25
2017-02-19T02:27:51.189Z,82.53
2017-02-19T02:28:12.890Z,83.29
2017-02-19T02:28:34.582Z,82.85
2017-02-19T02:28:56.314Z,82.88
2017-02-19T02:29:27.537Z,82.66
2017-02-19T02:29:49.228Z,82.71
2017-02-19T02:30:10.929Z,82.39
2017-02-19T02:30:37.404Z,82.24
2017-02-19T02:30:59.102Z,82.31
2017-02-19T02:31:20.790Z,82.43
2017-02-19T02:31:42.491Z,82.85
2017-02-19T02:32:04.211Z,82.68
2017-02-19T02:32:30.685Z,82.68
2017-02-19T02:32:52.379Z,82.59
2017-02-19T02:33:14.092Z,82.75
2017-02-19T02:33:35.795Z,82.97
2017-02-19T02:33:57.489Z,82.63
2017-02-19T02:34:19.194Z,82.21
2017-02-19T02:34:40.896Z,82.37
2017-02-19T02:35:02.600Z,82.70
2017-02-19T02:35:24.299Z,82.42
2017-02-19T02:35:45.998Z,82.23
2017-02-19T02:36:07.727Z,82.33
2017-02-19T02:36:29.432Z,82.78
2017-02-19T02:36:51.120Z,82.84
2017-02-19T02:37:12.848Z,82.94
2017-02-19T02:37:34.538Z,83.25
2017-02-19T02:37:56.233Z,83.43
2017-02-19T02:38:17.937Z,83.18
2017-02-19T02:38:39.633Z,83.03
2017-02-19T02:39:01.344Z,82.76
2017-02-19T02:39:23.123Z,83.22
2017-02-19T02:39:44.813Z,82.74
2017-02-19T02:40:06.515Z,83.01
2017-02-19T02:40:31.030Z,83.54
2017-02-19T02:40:52.728Z,82.99
2017-02-19T02:41:14.436Z,83.11
2017-02-19T02:41:36.136Z,83.05
2017-02-19T02:41:57.827Z,82.82
2017-02-19T02:42:19.884Z,82.93
2017-02-19T02:42:41.590Z,82.94
2017-02-19T02:43:08.062Z,83.21
2017-02-19T02:43:34.547Z,82.68
2017-02-19T02:43:56.246Z,83.49
2017-02-19T02:44:27.489Z,83.16
2017-02-19T02:44:49.181Z,83.14
2017-02-19T02:45:10.889Z,83.04
2017-02-19T02:45:32.584Z,82.88
2017-02-19T02:45:54.279Z,82.76
2017-02-19T02:46:18.595Z,83.38
2017-02-19T02:46:40.286Z,83.41
2017-02-19T02:47:02.001Z,82.89
2017-02-19T02:47:28.470Z,82.90
2017-02-19T02:47:50.163Z,83.02
2017-02-19T02:48:11.860Z,83.84
2017-02-19T02:48:38.330Z,83.56
2017-02-19T02:49:00.022Z,83.73
2017-02-19T02:49:26.503Z,83.66
2017-02-19T02:49:48.192Z,84.15
2017-02-19T02:50:09.898Z,83.86
2017-02-19T02:50:31.597Z,83.26
2017-02-19T02:50:53.291Z,83.58
2017-02-19T02:51:14.985Z,83.55
2017-02-19T02:51:36.684Z,83.49
2017-02-19T02:51:58.397Z,83.58
2017-02-19T02:52:20.098Z,83.97
2017-02-19T02:52:41.796Z,83.70
2017-02-19T02:53:03.491Z,83.77
2017-02-19T02:53:29.968Z,83.40
2017-02-19T02:53:51.673Z,83.72
2017-02-19T02:54:13.366Z,84.24
2017-02-19T02:54:39.836Z,83.71
2017-02-19T02:55:01.533Z,83.90
2017-02-19T02:55:23.232Z,83.78
2017-02-19T02:55:49.716Z,83.76
2017-02-19T02:56:11.401Z,84.27
2017-02-19T02:56:33.100Z,84.29
2017-02-19T02:56:54.806Z,84.06
2017-02-19T02:57:16.499Z,84.51
2017-02-19T02:57:42.969Z,83.95
2017-02-19T02:58:04.662Z,83.86
2017-02-19T02:58:26.384Z,84.42
2017-02-19T02:58:48.122Z,84.05
2017-02-19T02:59:09.818Z,83.62
2017-02-19T02:59:31.524Z,83.50
2017-02-19T02:59:53.232Z,83.32
2017-02-19T03:00:14.919Z,83.07
2017-02-19T03:00:36.607Z,82.98
2017-02-19T03:01:03.081Z,83.19
2017-02-19T03:01:24.785Z,83.43
2017-02-19T03:01:46.477Z,83.66
2017-02-19T03:02:08.176Z,83.26
2017-02-19T03:02:29.870Z,83.86
2017-02-19T03:02:56.350Z,83.21
2017-02-19T03:03:18.042Z,83.42
2017-02-19T03:03:39.757Z,83.72
2017-02-19T03:04:01.482Z,83.25
2017-02-19T03:04:23.177Z,83.25
2017-02-19T03:04:44.872Z,83.67
2017-02-19T03:05:06.571Z,83.71
2017-02-19T03:05:28.272Z,83.53
2017-02-19T03:05:49.966Z,83.71
2017-02-19T03:06:16.438Z,83.59
2017-02-19T03:06:38.149Z,83.15
2017-02-19T03:06:59.834Z,83.18
2017-02-19T03:07:21.536Z,83.33
2017-02-19T03:07:43.229Z,83.71
2017-02-19T03:08:04.932Z,83.68
2017-02-19T03:08:31.409Z,83.86
2017-02-19T03:08:53.103Z,84.01
2017-02-19T03:09:14.824Z,83.81
2017-02-19T03:09:36.523Z,84.00
2017-02-19T03:09:58.208Z,83.40
2017-02-19T03:10:19.911Z,83.55
2017-02-19T03:10:41.646Z,83.42
2017-02-19T03:11:03.311Z,83.44
2017-02-19T03:11:25.008Z,83.49
2017-02-19T03:11:46.707Z,83.41
2017-02-19T03:12:08.398Z,83.72
2017-02-19T03:12:30.096Z,83.76
2017-02-19T03:12:51.798Z,83.58
2017-02-19T03:13:13.488Z,83.81
2017-02-19T03:13:35.189Z,83.18
2017-02-19T03:13:56.890Z,83.42
2017-02-19T03:14:18.616Z,83.64
2017-02-19T03:14:40.307Z,83.36
2017-02-19T03:15:06.784Z,84.35
2017-02-19T03:15:28.480Z,83.97
2017-02-19T03:15:50.168Z,83.82
2017-02-19T03:16:11.873Z,83.61
2017-02-19T03:16:33.569Z,83.33
2017-02-19T03:16:55.272Z,83.24
2017-02-19T03:17:16.990Z,83.71
2017-02-19T03:17:38.679Z,83.20
2017-02-19T03:18:00.377Z,83.24
2017-02-19T03:18:22.082Z,83.27
2017-02-19T03:18:43.781Z,83.08
2017-02-19T03:19:05.474Z,83.17
2017-02-19T03:19:27.194Z,83.20
2017-02-19T03:19:48.896Z,82.86
2017-02-19T03:20:10.588Z,82.75
2017-02-19T03:20:32.288Z,82.80
2017-02-19T03:20:58.762Z,82.61
2017-02-19T03:21:20.456Z,83.00
2017-02-19T03:21:42.161Z,83.00
2017-02-19T03:22:03.862Z,83.00
2017-02-19T03:22:25.564Z,83.22
2017-02-19T03:22:47.267Z,83.29
2017-02-19T03:23:08.969Z,83.20
2017-02-19T03:23:30.665Z,83.37
2017-02-19T03:23:52.368Z,83.65
2017-02-19T03:24:14.067Z,83.78
2017-02-19T03:24:35.792Z,83.78
2017-02-19T03:25:02.285Z,84.63
2017-02-19T03:25:23.976Z,84.40
2017-02-19T03:25:50.454Z,84.11
2017-02-19T03:26:12.161Z,84.33
2017-02-19T03:26:33.849Z,84.28
2017-02-19T03:26:55.558Z,83.91
2017-02-19T03:27:22.027Z,83.79
2017-02-19T03:27:43.716Z,83.67
2017-02-19T03:28:05.411Z,83.71
2017-02-19T03:28:27.114Z,83.71
2017-02-19T03:28:48.810Z,83.78
2017-02-19T03:29:10.508Z,83.73
2017-02-19T03:29:32.207Z,83.89
2017-02-19T03:29:53.901Z,83.60
2017-02-19T03:30:15.599Z,83.27
2017-02-19T03:30:37.338Z,83.77
2017-02-19T03:30:59.028Z,83.92
2017-02-19T03:31:20.733Z,83.80
2017-02-19T03:31:47.204Z,83.58
2017-02-19T03:32:08.894Z,83.82
2017-02-19T03:32:35.378Z,84.84
2017-02-19T03:32:57.072Z,85.01
2017-02-19T03:33:18.784Z,84.98
2017-02-19T03:33:40.484Z,84.16
2017-02-19T03:34:02.178Z,83.85
2017-02-19T03:34:23.872Z,83.80
2017-02-19T03:34:45.565Z,83.76
2017-02-19T03:35:07.255Z,83.35
2017-02-19T03:35:28.953Z,84.17
2017-02-19T03:35:50.679Z,83.69
2017-02-19T03:36:12.368Z,83.26
2017-02-19T03:36:34.080Z,83.42
2017-02-19T03:37:00.543Z,83.38
2017-02-19T03:37:22.235Z,83.36
2017-02-19T03:37:43.937Z,83.25
2017-02-19T03:38:05.642Z,83.31
2017-02-19T03:38:27.333Z,83.02
2017-02-19T03:38:58.583Z,82.92
2017-02-19T03:39:20.272Z,83.31
2017-02-19T03:39:41.972Z,83.03
2017-02-19T03:40:03.678Z,83.23
2017-02-19T03:40:25.394Z,83.35
2017-02-19T03:40:47.102Z,84.39
2017-02-19T03:41:08.792Z,83.96
2017-02-19T03:41:30.486Z,83.75
2017-02-19T03:41:52.186Z,83.43
2017-02-19T03:42:13.888Z,83.43
2017-02-19T03:42:35.587Z,84.37
2017-02-19T03:42:57.287Z,83.92
2017-02-19T03:43:23.757Z,83.55
2017-02-19T03:43:45.458Z,83.70
2017-02-19T03:44:07.157Z,84.95
2017-02-19T03:44:33.636Z,84.74
2017-02-19T03:44:55.327Z,84.64
2017-02-19T03:45:21.796Z,84.50
2017-02-19T03:45:43.491Z,84.33
2017-02-19T03:46:05.191Z,84.07
2017-02-19T03:46:26.890Z,84.16
2017-02-19T03:46:48.584Z,84.26
2017-02-19T03:47:15.056Z,84.81
2017-02-19T03:47:36.755Z,84.70
2017-02-19T03:47:58.461Z,84.73
2017-02-19T03:48:20.171Z,84.39
2017-02-19T03:48:41.858Z,84.88
2017-02-19T03:49:03.562Z,84.64
2017-02-19T03:49:25.272Z,84.72
2017-02-19T03:49:51.753Z,85.03
2017-02-19T03:50:13.443Z,84.90
2017-02-19T03:50:39.918Z,85.25
2017-02-19T03:51:01.615Z,84.99
2017-02-19T03:51:23.308Z,84.67
2017-02-19T03:51:44.999Z,84.68
2017-02-19T03:52:06.698Z,84.50
2017-02-19T03:52:28.404Z,84.74
2017-02-19T03:52:50.103Z,85.09
2017-02-19T03:53:11.796Z,85.00
2017-02-19T03:53:33.488Z,84.28
2017-02-19T03:53:59.962Z,84.06
2017-02-19T03:54:21.652Z,84.39
2017-02-19T03:54:43.357Z,84.39
2017-02-19T03:55:05.056Z,84.72
2017-02-19T03:55:26.749Z,84.75
2017-02-19T03:55:48.484Z,85.02
2017-02-19T03:56:14.964Z,84.64
2017-02-19T03:56:36.656Z,84.21
2017-02-19T03:56:58.350Z,84.00
2017-02-19T03:57:24.817Z,84.27
2017-02-19T03:57:46.514Z,84.14
2017-02-19T03:58:17.761Z,84.39
2017-02-19T03:58:39.460Z,83.89
2017-02-19T03:59:05.940Z,83.64
2017-02-19T03:59:27.633Z,83.74
2017-02-19T03:59:58.883Z,83.38
2017-02-19T04:00:20.573Z,83.37
2017-02-19T04:00:42.274Z,83.62
2017-02-19T04:01:04.043Z,83.57
2017-02-19T04:01:25.744Z,83.85
2017-02-19T04:01:47.454Z,83.92
2017-02-19T04:02:09.153Z,83.89
2017-02-19T04:02:30.844Z,83.41
2017-02-19T04:02:57.323Z,83.04
2017-02-19T04:03:19.023Z,83.21
2017-02-19T04:03:40.725Z,83.29
2017-02-19T04:04:02.429Z,83.34
2017-02-19T04:04:28.900Z,83.40
2017-02-19T04:04:50.593Z,84.08
2017-02-19T04:05:17.063Z,83.65
2017-02-19T04:05:38.763Z,83.76
2017-02-19T04:06:00.456Z,84.16
2017-02-19T04:06:22.179Z,84.02
2017-02-19T04:06:43.874Z,83.98
2017-02-19T04:07:05.568Z,84.07
2017-02-19T04:07:27.274Z,84.09
2017-02-19T04:07:48.976Z,85.14
2017-02-19T04:08:10.666Z,84.62
2017-02-19T04:08:41.915Z,84.57
2017-02-19T04:09:03.607Z,84.80
2017-02-19T04:09:30.087Z,84.88
2017-02-19T04:09:51.783Z,84.88
2017-02-19T04:10:13.482Z,84.83
2017-02-19T04:10:35.182Z,84.45
2017-02-19T04:10:56.871Z,84.19
2017-02-19T04:11:18.572Z,84.30
2017-02-19T04:11:40.621Z,84.60
2017-02-19T04:12:02.315Z,84.75
2017-02-19T04:12:24.014Z,84.49
2017-02-19T04:12:45.709Z,84.10
2017-02-19T04:13:07.402Z,83.65
2017-02-19T04:13:29.106Z,83.85
2017-02-19T04:13:50.812Z,84.36
2017-02-19T04:14:12.509Z,84.17
2017-02-19T04:14:34.209Z,84.10
2017-02-19T04:14:55.909Z,83.90
2017-02-19T04:15:17.617Z,83.97
2017-02-19T04:15:39.324Z,83.90
2017-02-19T04:16:01.012Z,84.21
2017-02-19T04:16:22.716Z,84.29
2017-02-19T04:16:44.434Z,84.25
2017-02-19T04:17:06.136Z,84.46
2017-02-19T04:17:27.835Z,84.31
2017-02-19T04:17:49.556Z,85.88
2017-02-19T04:18:11.232Z,85.26
2017-02-19T04:19:14.313Z,84.93
2017-02-19T04:19:36.006Z,84.88
2017-02-19T04:19:57.723Z,84.94
2017-02-19T04:20:19.423Z,84.74
2017-02-19T04:20:41.120Z,84.61
2017-02-19T04:21:02.827Z,85.16
2017-02-19T04:21:34.082Z,85.10
2017-02-19T04:21:55.798Z,85.52
2017-02-19T04:22:17.500Z,85.12
2017-02-19T04:23:15.786Z,85.17
2017-02-19T04:23:37.477Z,85.23
2017-02-19T04:23:59.178Z,85.23
2017-02-19T04:24:20.879Z,84.97
2017-02-19T04:24:42.577Z,84.98
2017-02-19T04:25:04.284Z,84.80
2017-02-19T04:25:25.976Z,84.53
2017-02-19T04:25:47.664Z,84.60
2017-02-19T04:26:09.370Z,84.71
2017-02-19T04:26:31.073Z,84.72
2017-02-19T04:26:52.766Z,84.76
2017-02-19T04:27:14.497Z,84.92
2017-02-19T04:27:45.746Z,84.95
2017-02-19T04:28:07.444Z,84.47
2017-02-19T04:28:29.138Z,84.46
2017-02-19T04:28:50.834Z,84.42
2017-02-19T04:29:12.528Z,84.30
2017-02-19T04:29:34.228Z,84.19
2017-02-19T04:29:55.934Z,84.83
2017-02-19T04:30:17.623Z,84.73
2017-02-19T04:30:44.110Z,84.43
2017-02-19T04:31:05.803Z,84.85
2017-02-19T04:31:27.497Z,84.75
2017-02-19T04:31:53.976Z,85.20
2017-02-19T04:32:15.706Z,85.14
2017-02-19T04:32:37.398Z,85.16
2017-02-19T04:32:59.102Z,84.55
2017-02-19T04:33:20.792Z,84.64
2017-02-19T04:33:42.484Z,84.91
2017-02-19T04:34:04.180Z,84.49
2017-02-19T04:34:25.873Z,84.46
2017-02-19T04:34:47.565Z,84.27
2017-02-19T04:35:09.269Z,83.98
2017-02-19T04:35:30.969Z,84.51
2017-02-19T04:35:52.671Z,84.36
2017-02-19T04:36:14.373Z,84.36
2017-02-19T04:36:36.064Z,84.24
2017-02-19T04:36:57.761Z,84.44
2017-02-19T04:37:24.263Z,84.51
2017-02-19T04:37:45.964Z,84.02
2017-02-19T04:38:12.434Z,84.26
2017-02-19T04:38:34.129Z,84.15
2017-02-19T04:38:55.822Z,84.08
2017-02-19T04:39:22.297Z,84.25
2017-02-19T04:39:43.994Z,84.34
2017-02-19T04:40:05.697Z,84.44
2017-02-19T04:40:32.169Z,85.04
2017-02-19T04:40:53.866Z,85.67
2017-02-19T04:41:20.335Z,85.18
2017-02-19T04:41:42.023Z,84.97
2017-02-19T04:42:08.491Z,85.39
2017-02-19T04:42:30.206Z,84.76
2017-02-19T04:42:51.908Z,84.92
2017-02-19T04:43:13.621Z,85.12
2017-02-19T04:43:35.315Z,84.69
2017-02-19T04:43:57.014Z,84.92
2017-02-19T04:44:23.482Z,85.34
2017-02-19T04:44:45.172Z,85.07
2017-02-19T04:45:11.642Z,84.94
2017-02-19T04:45:33.337Z,85.28
2017-02-19T04:45:55.048Z,85.33
2017-02-19T04:46:16.760Z,85.48
2017-02-19T04:46:38.453Z,85.43
2017-02-19T04:47:00.156Z,85.20
2017-02-19T04:47:26.636Z,84.58
2017-02-19T04:47:48.354Z,84.55
2017-02-19T04:48:10.049Z,84.16
2017-02-19T04:48:36.516Z,84.16
2017-02-19T04:48:58.204Z,84.30
2017-02-19T04:49:19.898Z,84.12
2017-02-19T04:49:41.601Z,83.96
2017-02-19T04:50:03.288Z,83.84
2017-02-19T04:50:24.985Z,84.32
2017-02-19T04:50:51.455Z,84.06
2017-02-19T04:51:13.151Z,84.18
2017-02-19T04:51:34.844Z,84.57
2017-02-19T04:52:01.308Z,84.18
2017-02-19T04:52:23.003Z,84.05
2017-02-19T04:52:49.484Z,84.42
2017-02-19T04:53:11.214Z,84.54
2017-02-19T04:53:32.919Z,84.37
2017-02-19T04:53:54.620Z,84.84
2017-02-19T04:54:16.314Z,84.45